Flight Track Log - Related Links

Times and Time Zones

All times are in EDT time to prevent confusion due to time zone crossing. See the N595PC flight status page for this flight to view local times or setup timezone preferences in your user account.

Time Position Orientation Groundspeed Altitude Reporting Facility
EDT Latitude Longitude Course Direction KTS MPH feet Rate Location/Type
Thu 07:41:44 AM 41.3964 -81.8844 267° West 204 235 1,800  Level Cleveland Center
Thu 07:42:17 AM 41.3950 -81.9192 267° West 203 234 3,400 3,306 Climbing Cleveland Center
Thu 07:42:33 AM 41.3964 -81.9514 273° West 219 252 4,500 3,148 Climbing Cleveland Center
Thu 07:43:18 AM 41.3958 -82.0039 269° West 222 255 6,600 3,134 Climbing Cleveland Center
Thu 07:43:40 AM 41.3897 -82.0453 259° West 243 280 8,000 2,806 Climbing Cleveland Center
Thu 07:44:20 AM 41.3825 -82.0922 258° West 236 272 9,500 2,412 Climbing Cleveland Center
Thu 07:45:22 AM 41.3661 -82.1786 256° West 237 273 12,100 2,439 Climbing Cleveland Center
Thu 07:46:23 AM 41.3528 -82.2894 261° West 254 292 14,500 2,195 Climbing Cleveland Center
Thu 07:47:25 AM 41.3389 -82.3881 259° West 265 305 16,600 1,984 Climbing Cleveland Center
Thu 07:48:27 AM 41.3161 -82.4828 252° West 266 306 18,600 1,951 Climbing Cleveland Center
Thu 07:49:28 AM 41.3003 -82.5797 258° West 266 306 20,600 1,951 Climbing Cleveland Center
Thu 07:50:30 AM 41.2878 -82.6764 260° West 265 305 22,600 1,790 Climbing Cleveland Center
Thu 07:51:32 AM 41.2775 -82.7742 262° West 265 305 24,300 1,548 Climbing Cleveland Center
Thu 07:52:34 AM 41.2725 -82.8764 266° West 271 312 25,800 1,452 Climbing Cleveland Center
Thu 07:53:36 AM 41.2661 -82.9781 265° West 273 314 27,300 1,610 Climbing Cleveland Center
Thu 07:54:37 AM 41.2586 -83.0969 265° West 274 315 29,100 1,415 Climbing Cleveland Center
Thu 07:55:39 AM 41.2544 -83.1806 266° West 261 300 30,200 1,161 Climbing Cleveland Center
Thu 07:56:41 AM 41.2469 -83.2761 264° West 261 300 31,500 1,161 Climbing Cleveland Center
Thu 07:57:43 AM 41.2433 -83.3708 267° West 259 298 32,600 1,122 Climbing Cleveland Center
Thu 07:58:44 AM 41.2336 -83.4853 264° West 259 298 33,800 683 Climbing Cleveland Center
Thu 07:59:46 AM 41.2297 -83.5844 267° West 265 305 34,000 97 Climbing Cleveland Center
Thu 08:00:48 AM 41.2214 -83.6908 264° West 283 326 34,000  Level Cleveland Center
Thu 08:01:50 AM 41.2133 -83.8050 265° West 303 349 34,000  Level Cleveland Center
Thu 08:02:52 AM 41.2050 -83.9328 265° West 310 357 34,000  Level Cleveland Center
Thu 08:03:54 AM 41.1961 -84.0497 264° West 316 364 34,000  Level Cleveland Center
Thu 08:04:56 AM 41.1892 -84.1692 266° West 321 369 34,000  Level Cleveland Center
Thu 08:05:57 AM 41.1794 -84.2867 264° West 321 369 34,000  Level Cleveland Center
Thu 08:06:59 AM 41.1719 -84.4072 265° West 325 374 34,000  Level Cleveland Center
Thu 08:08:01 AM 41.1622 -84.5247 264° West 325 374 34,000  Level Cleveland Center
Thu 08:09:03 AM 41.1525 -84.6700 265° West 325 374 34,000  Level Cleveland Center
Thu 08:09:47 AM 41.1458 -84.7417 263° West 326 375 34,000  Level Chicago Center
Thu 08:10:49 AM 41.1386 -84.8614 265° West 326 375 34,000  Level Chicago Center
Thu 08:11:51 AM 41.1275 -84.9833 263° West 327 376 34,000  Level Chicago Center
Thu 08:12:54 AM 41.1178 -85.1303 265° West 329 379 34,000  Level Chicago Center
Thu 08:13:56 AM 41.1064 -85.2528 263° West 330 380 34,000  Level Chicago Center
Thu 08:14:58 AM 41.0964 -85.3769 264° West 334 384 34,000  Level Chicago Center
Thu 08:16:00 AM 41.0867 -85.5028 264° West 339 390 34,000  Level Chicago Center
Thu 08:17:02 AM 41.0756 -85.6269 263° West 340 391 34,000  Level Chicago Center
Thu 08:18:04 AM 41.0664 -85.7542 265° West 344 396 34,000  Level Chicago Center
Thu 08:19:06 AM 41.0525 -85.9061 263° West 346 398 34,000  Level Chicago Center
Thu 08:20:08 AM 41.0422 -86.0319 264° West 346 398 34,000  Level Chicago Center
Thu 08:21:10 AM 41.0297 -86.1572 263° West 345 397 34,000 -145 Level Chicago Center
Thu 08:22:12 AM 41.0197 -86.2817 264° West 341 392 33,700 -629 Descending Chicago Center
Thu 08:23:14 AM 41.0094 -86.4047 264° West 340 391 32,700 -823 Descending Chicago Center
Thu 08:24:16 AM 40.9983 -86.5203 263° West 320 368 32,000 -339 Descending Chicago Center
Thu 08:25:18 AM 40.9881 -86.6314 263° West 306 352 32,000  Level Chicago Center
Thu 08:26:21 AM 40.9758 -86.7636 263° West 313 360 32,000  Level Chicago Center
Thu 08:27:23 AM 40.9661 -86.8808 264° West 318 366 32,000  Level Chicago Center
Thu 08:28:25 AM 40.9531 -86.9994 262° West 323 372 32,000  Level Chicago Center
Thu 08:29:27 AM 40.9433 -87.1194 264° West 324 373 32,000 -145 Level Chicago Center
Thu 08:30:29 AM 40.9269 -87.2642 262° West 328 377 31,700 -581 Descending Chicago Center
Thu 08:31:31 AM 40.9158 -87.3864 263° West 333 383 30,800 -829 Descending Chicago Center
Thu 08:32:32 AM 40.9047 -87.5081 263° West 333 383 30,000 -780 Descending Chicago Center
Thu 08:33:34 AM 40.8925 -87.6306 263° West 333 383 29,200 -968 Descending Chicago Center
Thu 08:34:36 AM 40.8803 -87.7533 263° West 334 384 28,000 -1,161 Descending Chicago Center
Thu 08:35:38 AM 40.8667 -87.8786 262° West 339 390 26,800 -1,161 Descending Chicago Center
Thu 08:36:40 AM 40.8553 -88.0022 263° West 339 390 25,600 -1,306 Descending Chicago Center
Thu 08:37:42 AM 40.8383 -88.1469 261° West 337 388 24,100 -1,306 Descending Chicago Center
Thu 08:38:44 AM 40.8269 -88.2644 263° West 328 377 22,900 -1,258 Descending Chicago Center
Thu 08:39:46 AM 40.8147 -88.3781 262° West 319 367 21,500 -1,403 Descending Chicago Center
Thu 08:40:48 AM 40.8033 -88.4914 262° West 315 362 20,000 -1,403 Descending Chicago Center
Thu 08:41:50 AM 40.7908 -88.6003 261° West 305 351 18,600 -1,452 Descending Chicago Center
Thu 08:42:52 AM 40.7786 -88.7078 261° West 303 349 17,000 -1,463 Descending Chicago Center
Thu 08:43:53 AM 40.7600 -88.8064 256° West 287 330 15,600 -1,548 Descending Chicago Center
Thu 08:44:56 AM 40.7128 -88.9128 240° Southwest 282 325 13,800 -1,597 Descending Chicago Center
Thu 08:45:57 AM 40.6753 -88.9983 240° Southwest 277 319 12,300 -1,415 Descending Chicago Center
Thu 08:46:59 AM 40.6400 -89.0786 240° Southwest 266 306 10,900 -1,403 Descending Chicago Center
Thu 08:48:01 AM 40.6039 -89.1581 239° Southwest 258 297 9,400 -1,403 Descending Chicago Center
Thu 08:49:03 AM 40.5744 -89.2406 245° Southwest 255 293 8,000 -1,403 Descending Chicago Center
Thu 08:50:05 AM 40.5481 -89.3194 246° West 241 277 6,500 -1,415 Descending Chicago Center
Thu 08:51:06 AM 40.5236 -89.3953 247° West 230 265 5,100 -1,366 Descending Chicago Center
Thu 08:52:08 AM 40.5356 -89.4686 282° West 206 237 3,700 -1,258 Descending Chicago Center
Thu 08:53:10 AM 40.5719 -89.5331 307° West 189 217 2,500 -629 Descending Chicago Center
Thu 08:54:12 AM 40.6006 -89.5836 307° West 179 206 2,400 -339 Descending Chicago Center
Thu 08:55:14 AM 40.6239 -89.6242 307° West 152 175 1,800 -581 Descending Chicago Center
Thu 08:56:16 AM 40.6425 -89.6578 306° West 126 145 1,200 -532 Descending Chicago Center
Thu 08:57:18 AM 40.6628 -89.6947 306° West 120 138 700 -484 Descending Chicago Center
Thu 08:59:00 AM 40.6642 -89.6933 38° Northeast  Level Estimated

Login

Don't have an account? Register now (free) for customized features, flight alerts, and more!